クグルクトゥク の空港の天気 - METARとTAF

Coppermine ( CYCO / YCO ) - カナダ ヌナブト準州Kugluktuk
飛行場実況気象(Metar)
観測時間05/28 16:00 MDT (05/28 22:00 UTC)
風向・風速北 3m/s
視程10km以上
天気現象弱い雪
全天の8割程度の雲 雲底高度 760m
全天を覆う雲 雲底高度 1830m
気温2℃
湿度81%
気圧1013hPa
METARCYCO 282200Z 36005KT 15SM -SN BKN025 OVC060 02/M01 A2990 RMK SC6SC2 SLP130
過去の天気等 Google飛行場航空写真 Wunderground天気予報

過去48時間のMETAR

飛行場予報(TAF)
発表時間: 5/28 15:08 MDT (5/28 21:08 UTC)
予報対象時間: 28日15時 MDT ~ 29日1時 MDT
風向・風速北北東 3m/s
視程10km以上
全天の4割程度の雲 雲底高度 460m
全天の8割程度の雲 雲底高度 1220m
全天を覆う雲 雲底高度 3050m
28日15時 MDT ~ 28日21時 MDT に一時的に
全天の8割程度の雲 雲底高度 460m
28日21時 MDT から
風向・風速東北東 6m/s
視程10km以上
少しの雲 雲底高度 150m
全天の8割程度の雲 雲底高度 3050m
28日21時 MDT ~ 29日1時 MDT に一時的に
視程8050m
天気現象もや
全天の4割程度の雲 雲底高度 150m
全天を覆う雲 雲底高度 3050m
TAF AMD CYCO 282108Z 2821/2907 03005KT P6SM SCT015 BKN040 OVC100
TEMPO 2821/2903 BKN015
FM290300 06012KT P6SM FEW005 BKN100
TEMPO 2903/2907 5SM BR SCT005 OVC100 RMK NXT FCST BY 290100Z